createdAt,value
2022-08-14T00:02:03.168Z,60.75
2022-08-14T00:05:12.101Z,61.04
2022-08-14T00:08:15.065Z,61.48
2022-08-14T00:11:37.840Z,61.37
2022-08-14T00:14:46.256Z,61.25
2022-08-14T00:17:57.925Z,62.07
2022-08-14T00:21:02.769Z,61.73
2022-08-14T00:24:08.043Z,61.72
2022-08-14T00:27:12.877Z,61.89
2022-08-14T00:30:19.825Z,61.99
2022-08-14T00:33:22.522Z,61.85
2022-08-14T00:36:49.351Z,61.85
2022-08-14T00:39:52.639Z,62.33
2022-08-14T00:42:56.639Z,62.12
2022-08-14T00:45:59.454Z,62.40
2022-08-14T00:49:02.926Z,62.70
2022-08-14T00:52:07.150Z,63.12
2022-08-14T00:55:10.641Z,63.23
2022-08-14T00:58:33.017Z,63.33
2022-08-14T01:01:37.126Z,63.55
2022-08-14T01:04:54.191Z,63.62
2022-08-14T01:07:59.578Z,63.49
2022-08-14T01:11:02.803Z,63.61
2022-08-14T01:14:25.353Z,63.80
2022-08-14T01:17:49.916Z,63.82
2022-08-14T01:21:09.195Z,64.02
2022-08-14T01:24:24.823Z,64.01
2022-08-14T01:27:57.071Z,64.42
2022-08-14T01:31:00.793Z,64.53
2022-08-14T01:35:19.129Z,64.73
2022-08-14T01:37:29.756Z,64.55
2022-08-14T01:40:41.117Z,64.20
2022-08-14T01:43:56.345Z,64.45
2022-08-14T01:47:01.787Z,64.57
2022-08-14T01:50:12.268Z,64.81
2022-08-14T01:53:17.726Z,64.30
2022-08-14T01:56:37.389Z,64.40
2022-08-14T01:59:44.239Z,64.72
2022-08-14T02:02:47.403Z,65.23
2022-08-14T02:05:59.846Z,65.21
2022-08-14T02:09:18.966Z,65.10
2022-08-14T02:12:26.630Z,64.47
2022-08-14T02:15:32.146Z,64.17
2022-08-14T02:18:36.176Z,64.16
2022-08-14T02:21:46.837Z,63.85
2022-08-14T02:24:52.385Z,64.04
2022-08-14T02:28:25.935Z,64.15
2022-08-14T02:31:19.776Z,64.00
2022-08-14T02:34:33.445Z,63.79
2022-08-14T02:37:47.247Z,63.81
2022-08-14T02:40:51.458Z,64.06
2022-08-14T02:43:55.523Z,64.06
2022-08-14T02:47:04.535Z,64.26
2022-08-14T02:50:17.607Z,64.06
2022-08-14T02:53:20.377Z,63.73
2022-08-14T02:56:30.783Z,64.01
2022-08-14T02:59:48.097Z,63.43
2022-08-14T03:02:59.031Z,64.02
2022-08-14T03:06:02.510Z,64.07
2022-08-14T03:09:06.090Z,63.76
2022-08-14T03:12:09.197Z,64.47
2022-08-14T03:15:16.159Z,63.87
2022-08-14T03:18:19.373Z,64.03
2022-08-14T03:21:36.512Z,64.07
2022-08-14T03:24:39.315Z,64.15
2022-08-14T03:27:47.759Z,64.32
2022-08-14T03:30:54.852Z,64.72
2022-08-14T03:34:00.624Z,64.94
2022-08-14T03:37:38.596Z,64.90
2022-08-14T03:40:26.243Z,64.93
2022-08-14T03:43:32.669Z,64.79
2022-08-14T03:46:54.840Z,64.38
2022-08-14T03:49:59.055Z,64.21
2022-08-14T03:53:02.768Z,64.96
2022-08-14T03:56:08.077Z,64.68
2022-08-14T03:59:17.901Z,64.43
2022-08-14T04:02:32.600Z,64.79
2022-08-14T04:05:43.237Z,64.31
2022-08-14T04:08:53.231Z,64.44
2022-08-14T04:12:01.975Z,64.40
2022-08-14T04:15:07.163Z,64.73
2022-08-14T04:18:11.838Z,64.39
2022-08-14T04:21:16.475Z,64.44
2022-08-14T04:24:20.165Z,64.05
2022-08-14T04:27:29.501Z,64.01
2022-08-14T04:30:33.515Z,64.26
2022-08-14T04:33:37.608Z,64.39
2022-08-14T04:37:01.029Z,64.47
2022-08-14T04:40:27.763Z,64.48
2022-08-14T04:43:40.248Z,64.90
2022-08-14T04:47:04.502Z,65.55
2022-08-14T04:50:10.588Z,65.48
2022-08-14T04:53:15.987Z,65.17
2022-08-14T04:56:33.764Z,64.93
2022-08-14T04:59:37.402Z,65.37
2022-08-14T05:02:46.230Z,64.74
2022-08-14T05:05:52.150Z,64.79
2022-08-14T05:08:59.542Z,64.61
2022-08-14T05:13:10.769Z,65.15
2022-08-14T05:15:29.483Z,64.63
2022-08-14T05:19:24.964Z,63.69
2022-08-14T05:22:16.581Z,61.86
2022-08-14T05:25:21.690Z,61.72
2022-08-14T05:28:26.792Z,60.36
2022-08-14T05:31:37.860Z,59.05
2022-08-14T05:34:45.791Z,57.09
2022-08-14T05:37:50.110Z,54.98
2022-08-14T05:40:53.156Z,54.70
2022-08-14T05:43:56.779Z,55.68
2022-08-14T05:47:00.543Z,55.87
2022-08-14T05:50:03.839Z,54.92
2022-08-14T05:53:09.004Z,54.78
2022-08-14T05:56:11.782Z,54.59
2022-08-14T05:59:16.759Z,53.09
2022-08-14T06:02:19.525Z,54.00
2022-08-14T06:05:28.828Z,52.42
2022-08-14T06:08:41.028Z,51.79
2022-08-14T06:11:44.704Z,51.50
2022-08-14T06:14:52.914Z,53.54
2022-08-14T06:17:59.026Z,52.50
2022-08-14T06:21:02.858Z,50.72
2022-08-14T06:24:18.733Z,52.05
2022-08-14T06:27:21.918Z,49.39
2022-08-14T06:30:41.851Z,49.37
2022-08-14T06:35:09.492Z,49.91
2022-08-14T06:37:12.867Z,48.12
2022-08-14T06:40:26.736Z,48.64
2022-08-14T06:43:31.923Z,45.88
2022-08-14T06:46:37.302Z,43.75
2022-08-14T06:49:44.266Z,42.91
2022-08-14T06:52:51.285Z,43.47
2022-08-14T06:56:00.754Z,41.89
2022-08-14T06:59:05.389Z,41.84
2022-08-14T07:02:29.406Z,41.54
2022-08-14T07:05:55.555Z,39.69
2022-08-14T07:09:00.606Z,38.67
2022-08-14T07:12:05.384Z,39.69
2022-08-14T07:15:09.487Z,39.26
2022-08-14T07:18:13.366Z,39.58
2022-08-14T07:21:17.234Z,39.04
2022-08-14T07:24:22.186Z,38.23
2022-08-14T07:27:36.108Z,38.61
2022-08-14T07:30:41.929Z,38.88
2022-08-14T07:33:53.364Z,37.87
2022-08-14T07:37:00.823Z,37.29
2022-08-14T07:40:08.031Z,36.87
2022-08-14T07:43:14.806Z,37.28
2022-08-14T07:46:21.057Z,36.10
2022-08-14T07:49:29.176Z,35.29
2022-08-14T07:52:42.282Z,33.78
2022-08-14T07:56:00.034Z,32.97
2022-08-14T07:59:13.099Z,34.28
2022-08-14T08:02:20.249Z,34.11
2022-08-14T08:05:25.230Z,34.17
2022-08-14T08:08:31.293Z,33.53
2022-08-14T08:11:37.296Z,33.66
2022-08-14T08:14:56.015Z,33.89
2022-08-14T08:18:06.789Z,34.50
2022-08-14T08:21:11.159Z,33.77
2022-08-14T08:24:19.740Z,32.43
2022-08-14T08:27:23.772Z,32.81
2022-08-14T08:30:30.633Z,32.67
2022-08-14T08:33:37.290Z,33.06
2022-08-14T08:36:46.456Z,33.30
2022-08-14T08:40:02.296Z,32.77
2022-08-14T08:43:08.875Z,33.49
2022-08-14T08:46:18.793Z,33.25
2022-08-14T08:49:24.461Z,33.37
2022-08-14T08:52:31.742Z,32.90
2022-08-14T08:55:38.545Z,32.81
2022-08-14T08:58:41.221Z,32.67
2022-08-14T09:01:58.762Z,31.38
2022-08-14T09:05:04.818Z,30.69
2022-08-14T09:08:26.423Z,29.46
2022-08-14T09:11:36.235Z,31.70
2022-08-14T09:14:40.063Z,31.35
2022-08-14T09:17:45.104Z,30.85
2022-08-14T09:20:51.154Z,29.73
2022-08-14T09:24:28.504Z,28.17
2022-08-14T09:27:22.361Z,29.39
2022-08-14T09:30:33.630Z,28.26
2022-08-14T09:33:55.877Z,28.28
2022-08-14T09:37:21.075Z,28.78
2022-08-14T09:40:38.765Z,28.07
2022-08-14T09:43:53.971Z,29.57
2022-08-14T09:46:58.094Z,29.58
2022-08-14T09:50:02.168Z,29.07
2022-08-14T09:53:17.756Z,29.04
2022-08-14T09:56:24.439Z,29.54
2022-08-14T09:59:42.295Z,29.20
2022-08-14T10:02:53.600Z,29.29
2022-08-14T10:06:07.564Z,29.04
2022-08-14T10:09:11.878Z,29.92
2022-08-14T10:12:18.884Z,29.46
2022-08-14T10:15:33.042Z,28.94
2022-08-14T10:18:35.858Z,29.71
2022-08-14T10:23:11.311Z,28.78
2022-08-14T10:25:15.425Z,28.75
2022-08-14T10:28:39.094Z,29.32
2022-08-14T10:31:45.584Z,28.73
2022-08-14T10:34:52.869Z,28.59
2022-08-14T10:38:01.919Z,27.81
2022-08-14T10:41:13.422Z,27.13
2022-08-14T10:44:20.841Z,27.10
2022-08-14T10:47:41.510Z,26.22
2022-08-14T10:50:59.945Z,28.01
2022-08-14T10:54:16.391Z,27.27
2022-08-14T10:57:22.631Z,27.81
2022-08-14T11:00:35.677Z,26.92
2022-08-14T11:03:56.933Z,26.84
2022-08-14T11:07:00.095Z,26.59
2022-08-14T11:10:07.129Z,26.12
2022-08-14T11:13:10.046Z,26.01
2022-08-14T11:16:15.131Z,26.97
2022-08-14T11:19:20.459Z,26.46
2022-08-14T11:22:52.879Z,25.53
2022-08-14T11:25:55.479Z,24.59
2022-08-14T11:29:01.263Z,24.13
2022-08-14T11:32:07.806Z,25.19
2022-08-14T11:35:16.066Z,24.24
2022-08-14T11:38:20.008Z,25.70
2022-08-14T11:41:27.273Z,26.49
2022-08-14T11:44:45.999Z,27.01
2022-08-14T11:48:12.636Z,28.17
2022-08-14T11:51:24.056Z,26.85
2022-08-14T11:54:34.197Z,25.50
2022-08-14T11:57:39.717Z,26.34
2022-08-14T12:00:50.261Z,24.61
2022-08-14T12:03:58.657Z,23.51
2022-08-14T12:07:03.641Z,23.74
2022-08-14T12:10:26.091Z,23.52
2022-08-14T12:13:34.782Z,23.35
2022-08-14T12:16:37.635Z,24.09
2022-08-14T12:19:51.211Z,24.63
2022-08-14T12:22:56.758Z,23.84
2022-08-14T12:26:12.139Z,24.06
2022-08-14T12:29:32.003Z,24.01
2022-08-14T12:32:42.179Z,23.86
2022-08-14T12:35:49.174Z,23.53
2022-08-14T12:38:54.258Z,23.60
2022-08-14T12:42:06.402Z,23.64
2022-08-14T12:45:16.625Z,22.89
2022-08-14T12:48:21.629Z,23.42
2022-08-14T12:51:35.656Z,23.97
2022-08-14T12:54:45.297Z,23.62
2022-08-14T12:58:28.850Z,24.17
2022-08-14T13:01:58.958Z,24.43
2022-08-14T13:04:57.826Z,24.02
2022-08-14T13:08:04.247Z,24.27
2022-08-14T13:11:07.530Z,23.84
2022-08-14T13:14:16.969Z,25.03
2022-08-14T13:17:25.418Z,24.82
2022-08-14T13:20:32.535Z,25.00
2022-08-14T13:23:37.402Z,24.49
2022-08-14T13:26:45.189Z,24.90
2022-08-14T13:29:53.235Z,24.82
2022-08-14T13:32:58.444Z,24.57
2022-08-14T13:36:03.691Z,24.59
2022-08-14T13:39:06.592Z,24.85
2022-08-14T13:42:14.400Z,25.66
2022-08-14T13:45:17.177Z,25.13
2022-08-14T13:48:32.271Z,26.20
2022-08-14T13:51:39.505Z,26.77
2022-08-14T13:54:46.818Z,26.86
2022-08-14T13:58:03.825Z,25.81
2022-08-14T14:01:08.322Z,26.49
2022-08-14T14:04:19.279Z,25.51
2022-08-14T14:07:23.940Z,25.60
2022-08-14T14:10:37.769Z,24.93
2022-08-14T14:13:44.819Z,24.79
2022-08-14T14:16:48.567Z,25.20
2022-08-14T14:19:54.025Z,24.29
2022-08-14T14:23:01.314Z,24.70
2022-08-14T14:26:06.598Z,24.17
2022-08-14T14:29:26.110Z,24.21
2022-08-14T14:32:32.168Z,24.17
2022-08-14T14:35:39.847Z,25.50
2022-08-14T14:38:45.193Z,25.81
2022-08-14T14:41:56.073Z,23.99
2022-08-14T14:45:07.587Z,25.21
2022-08-14T14:48:11.784Z,24.79
2022-08-14T14:51:21.935Z,25.10
2022-08-14T14:54:31.882Z,24.63
2022-08-14T14:57:41.398Z,24.73
2022-08-14T15:00:47.966Z,24.21
2022-08-14T15:03:54.705Z,24.01
2022-08-14T15:07:00.482Z,24.30
2022-08-14T15:10:03.985Z,24.23
2022-08-14T15:13:08.102Z,24.29
2022-08-14T15:16:12.694Z,24.08
2022-08-14T15:19:15.748Z,24.67
2022-08-14T15:22:20.687Z,24.16
2022-08-14T15:25:31.760Z,24.66
2022-08-14T15:28:38.774Z,25.29
2022-08-14T15:31:43.469Z,24.68
2022-08-14T15:34:51.197Z,24.02
2022-08-14T15:37:56.375Z,24.16
2022-08-14T15:41:04.691Z,23.75
2022-08-14T15:44:24.757Z,24.23
2022-08-14T15:47:35.635Z,23.76
2022-08-14T15:50:44.931Z,23.96
2022-08-14T15:53:53.372Z,24.34
2022-08-14T15:57:00.413Z,24.29
2022-08-14T16:00:43.307Z,25.11
2022-08-14T16:03:46.850Z,24.51
2022-08-14T16:06:51.783Z,25.28
2022-08-14T16:10:27.812Z,25.79
2022-08-14T16:13:40.564Z,25.57
2022-08-14T16:16:50.076Z,26.32
2022-08-14T16:19:55.791Z,26.52
2022-08-14T16:23:00.628Z,26.49
2022-08-14T16:26:04.874Z,26.70
2022-08-14T16:29:09.599Z,26.67
2022-08-14T16:32:33.027Z,27.63
2022-08-14T16:39:05.098Z,27.19
2022-08-14T16:42:39.925Z,27.89
2022-08-14T16:45:33.901Z,27.72
2022-08-14T16:48:57.311Z,28.32
2022-08-14T16:52:03.770Z,28.18
2022-08-14T16:55:30.515Z,27.47
2022-08-14T16:58:35.200Z,27.48
2022-08-14T17:01:41.965Z,27.36
2022-08-14T17:04:45.605Z,26.92
2022-08-14T17:08:41.463Z,26.52
2022-08-14T17:11:34.109Z,26.51
2022-08-14T17:14:57.820Z,26.70
2022-08-14T17:18:00.492Z,27.29
2022-08-14T17:21:19.409Z,27.45
2022-08-14T17:24:58.469Z,27.78
2022-08-14T17:28:51.445Z,28.17
2022-08-14T17:35:10.266Z,27.75
2022-08-14T17:38:38.865Z,28.45
2022-08-14T17:41:43.877Z,28.92
2022-08-14T17:44:48.260Z,28.63
2022-08-14T17:47:53.316Z,28.76
2022-08-14T17:50:59.401Z,28.91
2022-08-14T17:54:08.475Z,28.98
2022-08-14T17:57:14.121Z,29.69
2022-08-14T18:00:17.738Z,29.80
2022-08-14T18:03:50.150Z,30.34
2022-08-14T18:07:06.158Z,30.43
2022-08-14T18:10:52.321Z,31.06
2022-08-14T18:13:52.082Z,31.02
2022-08-14T18:16:57.110Z,30.94
2022-08-14T18:20:01.641Z,30.85
2022-08-14T18:23:24.810Z,31.53
2022-08-14T18:26:36.160Z,31.57
2022-08-14T18:29:45.079Z,31.62
2022-08-14T18:33:13.982Z,32.09
2022-08-14T18:36:47.900Z,34.08
2022-08-14T18:40:02.963Z,33.98
2022-08-14T18:43:07.120Z,33.06
2022-08-14T18:46:36.914Z,33.42
2022-08-14T18:50:03.858Z,33.66
2022-08-14T18:53:33.981Z,34.58
2022-08-14T18:56:57.523Z,35.00
2022-08-14T19:00:01.093Z,35.34
2022-08-14T19:03:05.751Z,35.69
2022-08-14T19:06:11.427Z,35.63
2022-08-14T19:09:53.765Z,35.90
2022-08-14T19:13:11.981Z,35.93
2022-08-14T19:16:18.619Z,36.27
2022-08-14T19:19:38.399Z,36.55
2022-08-14T19:22:43.736Z,36.57
2022-08-14T19:25:57.625Z,37.07
2022-08-14T19:29:00.588Z,37.27
2022-08-14T19:32:06.349Z,37.35
2022-08-14T19:35:49.759Z,37.03
2022-08-14T19:39:02.088Z,37.60
2022-08-14T19:42:10.525Z,37.14
2022-08-14T19:45:15.940Z,36.93
2022-08-14T19:48:18.757Z,37.18
2022-08-14T19:51:21.935Z,37.28
2022-08-14T19:54:32.229Z,37.53
2022-08-14T19:57:37.436Z,37.20
2022-08-14T20:00:52.494Z,37.69
2022-08-14T20:04:00.089Z,38.26
2022-08-14T20:07:06.258Z,38.00
2022-08-14T20:11:04.709Z,38.28
2022-08-14T20:13:57.947Z,38.60
2022-08-14T20:17:06.222Z,39.17
2022-08-14T20:20:25.298Z,39.48
2022-08-14T20:23:38.293Z,39.27
2022-08-14T20:26:46.971Z,40.02
2022-08-14T20:30:29.545Z,40.45
2022-08-14T20:33:48.057Z,40.67
2022-08-14T20:37:00.763Z,40.92
2022-08-14T20:40:23.720Z,40.97
2022-08-14T20:43:48.402Z,41.77
2022-08-14T20:47:00.571Z,42.23
2022-08-14T20:50:17.068Z,42.71
2022-08-14T20:53:35.678Z,42.84
2022-08-14T20:56:40.603Z,43.34
2022-08-14T20:59:50.385Z,43.38
2022-08-14T21:02:54.389Z,43.76
2022-08-14T21:05:58.747Z,43.79
2022-08-14T21:09:06.764Z,44.18
2022-08-14T21:12:34.193Z,44.50
2022-08-14T21:15:34.695Z,44.87
2022-08-14T21:18:44.855Z,44.97
2022-08-14T21:21:54.737Z,45.09
2022-08-14T21:25:02.202Z,45.14
2022-08-14T21:28:30.121Z,45.07
2022-08-14T21:31:33.345Z,45.32
2022-08-14T21:34:37.557Z,45.30
2022-08-14T21:37:45.978Z,44.95
2022-08-14T21:40:52.672Z,44.89
2022-08-14T21:44:05.206Z,45.10
2022-08-14T21:47:23.689Z,45.44
2022-08-14T21:50:56.682Z,45.36
2022-08-14T21:53:58.380Z,45.76
2022-08-14T21:57:03.436Z,45.35
2022-08-14T22:00:34.698Z,45.29
2022-08-14T22:03:47.508Z,45.75
2022-08-14T22:06:59.719Z,46.06
2022-08-14T22:10:02.575Z,46.13
2022-08-14T22:13:08.745Z,46.31
2022-08-14T22:17:01.663Z,46.33
2022-08-14T22:19:47.223Z,46.40
2022-08-14T22:23:04.238Z,47.00
2022-08-14T22:26:08.018Z,46.66
2022-08-14T22:29:12.212Z,47.36
2022-08-14T22:32:14.985Z,47.45
2022-08-14T22:35:23.368Z,48.15
2022-08-14T22:38:36.309Z,48.21
2022-08-14T22:41:42.483Z,49.17
2022-08-14T22:44:46.010Z,48.76
2022-08-14T22:47:49.255Z,49.09
2022-08-14T22:50:59.365Z,49.75
2022-08-14T22:54:04.621Z,49.95
2022-08-14T22:57:10.239Z,50.29
2022-08-14T23:00:19.835Z,50.92
2022-08-14T23:03:29.078Z,50.66
2022-08-14T23:07:02.796Z,50.91
2022-08-14T23:10:32.259Z,51.02
2022-08-14T23:13:22.337Z,50.75
2022-08-14T23:16:27.038Z,50.94
2022-08-14T23:19:34.977Z,50.88
2022-08-14T23:22:38.119Z,51.04
2022-08-14T23:25:58.066Z,51.27
2022-08-14T23:29:03.667Z,51.17
2022-08-14T23:32:18.939Z,51.36
2022-08-14T23:35:27.037Z,51.80
2022-08-14T23:38:31.378Z,52.04
2022-08-14T23:41:46.383Z,52.03
2022-08-14T23:44:55.745Z,51.96
2022-08-14T23:47:59.408Z,52.16
2022-08-14T23:51:04.532Z,52.39
2022-08-14T23:54:48.117Z,52.46
2022-08-14T23:57:31.842Z,52.75
